createdAt,value
2022-11-19T00:01:56.077Z,50.40
2022-11-19T00:04:23.500Z,45.10
2022-11-19T00:06:59.988Z,47.20
2022-11-19T00:09:27.042Z,43.73
2022-11-19T00:12:14.119Z,43.43
2022-11-19T00:14:45.262Z,50.07
2022-11-19T00:17:12.237Z,41.60
2022-11-19T00:19:39.595Z,53.37
2022-11-19T00:22:06.988Z,49.53
2022-11-19T00:24:34.434Z,45.03
2022-11-19T00:27:02.014Z,39.00
2022-11-19T00:29:29.550Z,46.17
2022-11-19T00:31:56.876Z,40.90
2022-11-19T00:34:24.588Z,47.13
2022-11-19T00:36:52.005Z,44.67
2022-11-19T00:39:21.097Z,45.23
2022-11-19T00:41:49.277Z,43.00
2022-11-19T00:44:16.735Z,45.50
2022-11-19T00:46:44.153Z,35.37
2022-11-19T00:49:11.592Z,51.77
2022-11-19T00:51:38.729Z,46.20
2022-11-19T00:54:06.175Z,47.30
2022-11-19T00:56:33.597Z,46.50
2022-11-19T00:59:01.514Z,41.10
2022-11-19T01:01:29.234Z,44.27
2022-11-19T01:03:56.730Z,43.17
2022-11-19T01:06:25.432Z,38.23
2022-11-19T01:08:53.393Z,46.00
2022-11-19T01:11:27.331Z,32.90
2022-11-19T01:13:55.000Z,45.00
2022-11-19T01:16:26.949Z,32.80
2022-11-19T01:18:54.430Z,36.67
2022-11-19T01:21:25.310Z,32.93
2022-11-19T01:23:52.893Z,31.40
2022-11-19T01:26:20.657Z,41.03
2022-11-19T01:28:48.404Z,42.27
2022-11-19T01:31:27.215Z,46.73
2022-11-19T01:33:54.605Z,43.00
2022-11-19T01:36:28.046Z,46.97
2022-11-19T01:38:55.668Z,39.93
2022-11-19T01:41:28.779Z,36.07
2022-11-19T01:43:59.327Z,43.47
2022-11-19T01:46:32.063Z,46.37
2022-11-19T01:49:08.595Z,38.60
2022-11-19T01:51:55.843Z,42.43
2022-11-19T01:54:31.146Z,41.63
2022-11-19T01:57:09.073Z,36.60
2022-11-19T01:59:37.730Z,34.73
2022-11-19T02:02:05.156Z,41.77
2022-11-19T02:04:33.087Z,37.77
2022-11-19T02:07:00.295Z,44.93
2022-11-19T02:09:28.356Z,39.83
2022-11-19T02:12:19.378Z,33.57
2022-11-19T02:15:21.879Z,37.20
2022-11-19T02:18:06.956Z,41.10
2022-11-19T02:20:34.356Z,43.60
2022-11-19T02:23:33.417Z,42.37
2022-11-19T02:26:24.917Z,45.57
2022-11-19T02:28:59.893Z,41.57
2022-11-19T02:31:58.187Z,39.47
2022-11-19T02:34:35.904Z,45.00
2022-11-19T02:37:16.521Z,38.80
2022-11-19T02:40:02.622Z,38.57
2022-11-19T02:42:30.015Z,33.97
2022-11-19T02:45:08.916Z,30.93
2022-11-19T02:47:40.670Z,53.90
2022-11-19T02:50:14.799Z,36.87
2022-11-19T02:52:44.466Z,30.87
2022-11-19T02:55:16.432Z,41.53
2022-11-19T02:57:48.594Z,33.37
2022-11-19T03:00:35.130Z,42.30
2022-11-19T03:03:21.186Z,27.17
2022-11-19T03:05:51.927Z,40.33
2022-11-19T03:08:19.651Z,38.83
2022-11-19T03:11:06.138Z,34.23
2022-11-19T03:14:04.300Z,39.60
2022-11-19T03:16:42.188Z,37.67
2022-11-19T03:19:48.136Z,39.50
2022-11-19T03:22:30.117Z,41.60
2022-11-19T03:25:03.390Z,37.83
2022-11-19T03:27:41.426Z,42.60
2022-11-19T03:30:10.160Z,35.27
2022-11-19T03:32:53.235Z,42.00
2022-11-19T03:35:29.677Z,35.73
2022-11-19T03:37:59.958Z,31.30
2022-11-19T03:40:31.119Z,28.17
2022-11-19T03:43:00.596Z,36.87
2022-11-19T03:45:32.527Z,39.07
2022-11-19T03:48:02.395Z,40.30
2022-11-19T03:50:50.455Z,37.03
2022-11-19T03:53:19.052Z,39.97
2022-11-19T03:55:56.630Z,45.00
2022-11-19T03:58:25.338Z,39.70
2022-11-19T04:00:52.903Z,28.30
2022-11-19T04:03:20.326Z,40.07
2022-11-19T04:05:47.722Z,38.33
2022-11-19T04:08:14.764Z,37.33
2022-11-19T04:10:42.253Z,22.50
2022-11-19T04:13:09.285Z,39.27
2022-11-19T04:15:36.720Z,45.43
2022-11-19T04:18:03.837Z,52.60
2022-11-19T04:20:31.199Z,43.93
2022-11-19T04:22:58.618Z,46.17
2022-11-19T04:25:26.042Z,37.37
2022-11-19T04:27:53.623Z,42.23
2022-11-19T04:30:21.080Z,48.37
2022-11-19T04:32:48.201Z,40.87
2022-11-19T04:35:18.163Z,41.80
2022-11-19T04:37:45.715Z,46.83
2022-11-19T04:40:13.391Z,48.23
2022-11-19T04:42:40.911Z,45.27
2022-11-19T04:45:08.689Z,38.77
2022-11-19T04:47:36.129Z,49.37
2022-11-19T04:50:03.569Z,43.67
2022-11-19T04:52:36.338Z,45.73
2022-11-19T04:55:06.801Z,45.53
2022-11-19T04:57:33.883Z,46.37
2022-11-19T05:00:00.883Z,48.57
2022-11-19T05:02:28.284Z,51.97
2022-11-19T05:04:55.713Z,47.97
2022-11-19T05:07:22.802Z,44.93
2022-11-19T05:09:49.853Z,51.40
2022-11-19T05:12:17.323Z,43.37
2022-11-19T05:14:45.650Z,43.33
2022-11-19T05:17:13.434Z,43.93
2022-11-19T05:19:41.373Z,45.83
2022-11-19T05:22:08.804Z,46.20
2022-11-19T05:24:36.223Z,43.10
2022-11-19T05:27:03.982Z,44.63
2022-11-19T05:29:30.977Z,43.23
2022-11-19T05:31:58.375Z,46.97
2022-11-19T05:34:25.757Z,47.73
2022-11-19T05:36:52.767Z,47.17
2022-11-19T05:39:22.229Z,45.37
2022-11-19T05:41:50.518Z,43.60
2022-11-19T05:44:18.153Z,45.03
2022-11-19T05:46:45.591Z,48.03
2022-11-19T05:49:13.018Z,47.97
2022-11-19T05:51:40.462Z,43.20
2022-11-19T05:54:07.901Z,43.77
2022-11-19T05:56:34.910Z,46.53
2022-11-19T05:59:02.332Z,45.33
2022-11-19T06:01:29.995Z,41.43
2022-11-19T06:03:57.271Z,48.37
2022-11-19T06:06:25.483Z,42.90
2022-11-19T06:08:52.877Z,48.80
2022-11-19T06:11:38.465Z,49.70
2022-11-19T06:14:05.587Z,45.27
2022-11-19T06:16:33.098Z,44.07
2022-11-19T06:19:00.571Z,47.57
2022-11-19T06:21:27.980Z,48.23
2022-11-19T06:23:55.409Z,44.40
2022-11-19T06:26:27.501Z,48.20
2022-11-19T06:28:54.951Z,44.00
2022-11-19T06:31:22.528Z,44.00
2022-11-19T06:33:53.444Z,44.23
2022-11-19T06:36:21.202Z,44.87
2022-11-19T06:38:48.342Z,43.73
2022-11-19T06:41:16.094Z,48.60
2022-11-19T06:43:43.639Z,50.97
2022-11-19T06:46:11.732Z,42.97
2022-11-19T06:48:39.320Z,48.70
2022-11-19T06:51:07.421Z,40.90
2022-11-19T06:53:34.939Z,43.93
2022-11-19T06:56:04.547Z,43.33
2022-11-19T06:58:32.029Z,45.13
2022-11-19T07:00:59.153Z,46.67
2022-11-19T07:03:26.799Z,44.40
2022-11-19T07:06:02.574Z,46.73
2022-11-19T07:08:33.633Z,44.80
2022-11-19T07:11:01.891Z,43.63
2022-11-19T07:13:49.267Z,43.03
2022-11-19T07:16:16.677Z,43.10
2022-11-19T07:18:44.121Z,47.70
2022-11-19T07:21:11.117Z,43.63
2022-11-19T07:23:38.556Z,39.60
2022-11-19T07:26:05.702Z,46.27
2022-11-19T07:28:34.829Z,40.10
2022-11-19T07:31:06.066Z,44.83
2022-11-19T07:33:33.641Z,44.30
2022-11-19T07:36:01.191Z,44.43
2022-11-19T07:38:32.716Z,44.03
2022-11-19T07:41:23.133Z,45.27
2022-11-19T07:43:50.642Z,50.73
2022-11-19T07:46:18.122Z,38.43
2022-11-19T07:48:45.101Z,41.53
2022-11-19T07:51:12.583Z,43.80
2022-11-19T07:53:40.098Z,50.63
2022-11-19T07:56:07.703Z,39.30
2022-11-19T07:58:35.358Z,43.30
2022-11-19T08:01:18.375Z,38.63
2022-11-19T08:03:49.603Z,36.30
2022-11-19T08:06:19.506Z,44.37
2022-11-19T08:08:47.302Z,36.57
2022-11-19T08:11:16.696Z,27.87
2022-11-19T08:13:44.324Z,26.30
2022-11-19T08:16:14.006Z,37.63
2022-11-19T08:18:41.442Z,35.30
2022-11-19T08:21:11.208Z,33.07
2022-11-19T08:23:39.499Z,30.63
2022-11-19T08:26:07.602Z,33.03
2022-11-19T08:28:35.047Z,32.07
2022-11-19T08:31:09.349Z,30.87
2022-11-19T08:33:36.937Z,29.27
2022-11-19T08:36:05.218Z,32.77
2022-11-19T08:38:38.377Z,32.30
2022-11-19T08:41:35.854Z,32.93
2022-11-19T08:44:18.085Z,35.33
2022-11-19T08:46:45.969Z,24.23
2022-11-19T08:49:24.447Z,29.77
2022-11-19T08:51:52.275Z,28.27
2022-11-19T08:54:20.005Z,32.27
2022-11-19T08:56:48.030Z,27.87
2022-11-19T08:59:15.151Z,28.65
2022-11-19T09:01:42.761Z,23.20
2022-11-19T09:04:10.742Z,28.07
2022-11-19T09:06:37.906Z,28.97
2022-11-19T09:09:05.235Z,24.63
2022-11-19T09:11:32.979Z,26.20
2022-11-19T09:14:01.233Z,23.23
2022-11-19T09:16:29.105Z,24.47
2022-11-19T09:18:56.463Z,27.37
2022-11-19T09:21:23.566Z,19.23
2022-11-19T09:23:51.225Z,29.10
2022-11-19T09:26:19.487Z,21.67
2022-11-19T09:28:48.080Z,25.37
2022-11-19T09:31:19.879Z,25.07
2022-11-19T09:33:49.861Z,21.30
2022-11-19T09:36:18.646Z,23.10
2022-11-19T09:42:19.079Z,25.17
2022-11-19T09:44:58.322Z,19.47
2022-11-19T09:47:25.741Z,20.10
2022-11-19T09:50:19.443Z,21.70
2022-11-19T09:52:49.571Z,22.67
2022-11-19T09:55:34.560Z,19.03
2022-11-19T09:58:07.306Z,18.10
2022-11-19T10:00:34.758Z,18.00
2022-11-19T10:03:12.026Z,19.20
2022-11-19T10:05:56.909Z,21.83
2022-11-19T10:09:03.090Z,22.67
2022-11-19T10:11:48.839Z,18.57
2022-11-19T10:14:30.860Z,17.80
2022-11-19T10:17:38.887Z,13.67
2022-11-19T10:20:14.131Z,18.00
2022-11-19T10:23:08.634Z,19.60
2022-11-19T10:25:45.465Z,23.50
2022-11-19T10:28:15.882Z,17.97
2022-11-19T10:30:49.152Z,22.87
2022-11-19T10:33:25.015Z,20.43
2022-11-19T10:35:57.094Z,16.53
2022-11-19T10:39:03.888Z,17.60
2022-11-19T10:41:42.299Z,17.87
2022-11-19T10:44:38.100Z,16.03
2022-11-19T10:47:11.947Z,15.67
2022-11-19T10:49:42.260Z,15.30
2022-11-19T10:52:19.039Z,20.37
2022-11-19T10:54:47.750Z,15.00
2022-11-19T10:57:18.774Z,17.53
2022-11-19T10:59:47.664Z,23.83
2022-11-19T11:02:31.527Z,15.17
2022-11-19T11:05:24.642Z,15.70
2022-11-19T11:07:59.022Z,11.93
2022-11-19T11:10:26.415Z,15.70
2022-11-19T11:13:13.102Z,12.03
2022-11-19T11:15:48.212Z,15.03
2022-11-19T11:18:15.963Z,14.00
2022-11-19T11:20:49.868Z,13.63
2022-11-19T11:23:20.652Z,11.43
2022-11-19T11:26:11.773Z,14.40
2022-11-19T11:29:07.943Z,13.47
2022-11-19T11:31:48.029Z,16.03
2022-11-19T11:34:15.618Z,15.10
2022-11-19T11:36:43.834Z,11.50
2022-11-19T11:39:27.977Z,10.67
2022-11-19T11:42:17.416Z,10.33
2022-11-19T11:44:55.941Z,11.63
2022-11-19T11:47:30.227Z,14.23
2022-11-19T11:50:20.104Z,16.10
2022-11-19T11:52:53.053Z,12.40
2022-11-19T11:55:25.957Z,11.97
2022-11-19T11:58:05.007Z,9.37
2022-11-19T12:00:42.805Z,10.73
2022-11-19T12:03:18.919Z,11.90
2022-11-19T12:06:15.344Z,12.27
2022-11-19T12:09:01.187Z,13.27
2022-11-19T12:11:57.938Z,10.53
2022-11-19T12:14:37.214Z,12.10
2022-11-19T12:17:23.090Z,13.93
2022-11-19T12:20:01.985Z,8.73
2022-11-19T12:22:45.587Z,11.37
2022-11-19T12:25:26.102Z,9.23
2022-11-19T12:28:19.790Z,15.00
2022-11-19T12:31:10.907Z,10.17
2022-11-19T12:34:10.648Z,15.37
2022-11-19T12:36:49.632Z,11.73
2022-11-19T12:39:44.357Z,10.37
2022-11-19T12:42:19.984Z,12.10
2022-11-19T12:45:11.430Z,11.43
2022-11-19T12:47:56.935Z,11.27
2022-11-19T12:51:00.553Z,18.03
2022-11-19T12:53:27.897Z,13.80
2022-11-19T12:56:16.341Z,11.80
2022-11-19T12:59:01.244Z,13.30
2022-11-19T13:01:34.227Z,13.57
2022-11-19T13:04:32.227Z,13.60
2022-11-19T13:07:08.718Z,18.10
2022-11-19T13:09:45.072Z,12.20
2022-11-19T13:12:16.269Z,19.10
2022-11-19T13:14:55.208Z,22.23
2022-11-19T13:17:29.560Z,13.60
2022-11-19T13:20:04.296Z,16.37
2022-11-19T13:22:42.524Z,18.13
2022-11-19T13:25:22.178Z,13.30
2022-11-19T13:27:51.735Z,16.77
2022-11-19T13:30:31.257Z,15.20
2022-11-19T13:33:00.933Z,14.03
2022-11-19T13:35:54.027Z,13.20
2022-11-19T13:38:28.294Z,13.80
2022-11-19T13:41:13.121Z,15.67
2022-11-19T13:43:59.413Z,15.37
2022-11-19T13:46:33.726Z,22.73
2022-11-19T13:49:51.609Z,17.40
2022-11-19T13:52:18.523Z,13.87
2022-11-19T13:54:46.173Z,16.53
2022-11-19T13:57:36.810Z,17.70
2022-11-19T14:00:04.132Z,13.67
2022-11-19T14:02:39.032Z,13.47
2022-11-19T14:05:17.968Z,15.23
2022-11-19T14:08:12.448Z,15.33
2022-11-19T14:10:39.999Z,13.83
2022-11-19T14:13:07.600Z,8.43
2022-11-19T14:16:23.511Z,9.47
2022-11-19T14:19:13.017Z,12.30
2022-11-19T14:22:14.953Z,12.60
2022-11-19T14:25:06.418Z,14.57
2022-11-19T14:27:34.640Z,11.97
2022-11-19T14:30:09.639Z,12.27
2022-11-19T14:32:37.093Z,13.10
2022-11-19T14:35:05.079Z,15.57
2022-11-19T14:37:43.171Z,13.20
2022-11-19T14:40:13.344Z,25.73
2022-11-19T14:43:34.702Z,13.00
2022-11-19T14:46:04.690Z,13.67
2022-11-19T14:48:35.654Z,12.53
2022-11-19T14:51:11.335Z,13.37
2022-11-19T14:53:53.192Z,13.73
2022-11-19T14:56:23.620Z,14.63
2022-11-19T14:59:07.273Z,21.90
2022-11-19T15:01:35.154Z,12.43
2022-11-19T15:04:07.452Z,15.77
2022-11-19T15:06:36.556Z,15.20
2022-11-19T15:09:06.157Z,15.87
2022-11-19T15:11:59.223Z,25.43
2022-11-19T15:14:29.006Z,16.33
2022-11-19T15:16:58.942Z,15.57
2022-11-19T15:19:26.949Z,20.50
2022-11-19T15:21:54.281Z,21.90
2022-11-19T15:24:39.983Z,17.60
2022-11-19T15:27:27.052Z,19.55
2022-11-19T15:30:17.266Z,19.43
2022-11-19T15:33:22.948Z,20.13
2022-11-19T15:36:27.342Z,19.90
2022-11-19T15:39:15.488Z,21.93
2022-11-19T15:42:00.271Z,45.70
2022-11-19T15:44:35.546Z,20.63
2022-11-19T15:47:06.954Z,28.77
2022-11-19T15:49:35.371Z,23.50
2022-11-19T15:52:27.233Z,22.97
2022-11-19T15:55:11.290Z,24.27
2022-11-19T15:57:43.851Z,24.23
2022-11-19T16:00:19.670Z,27.47
2022-11-19T16:02:49.523Z,24.40
2022-11-19T16:05:30.051Z,27.00
2022-11-19T16:07:59.819Z,27.30
2022-11-19T16:10:32.898Z,23.77
2022-11-19T16:13:20.630Z,28.37
2022-11-19T16:16:11.045Z,21.67
2022-11-19T16:18:48.817Z,30.50
2022-11-19T16:21:31.173Z,29.43
2022-11-19T16:24:18.980Z,30.10
2022-11-19T16:26:46.481Z,31.77
2022-11-19T16:29:22.123Z,29.97
2022-11-19T16:32:02.202Z,37.67
2022-11-19T16:34:31.265Z,30.47
2022-11-19T16:36:58.638Z,25.40
2022-11-19T16:39:27.915Z,31.37
2022-11-19T16:42:19.028Z,31.33
2022-11-19T16:44:47.593Z,28.77
2022-11-19T16:47:26.658Z,27.60
2022-11-19T16:49:58.338Z,26.17
2022-11-19T16:52:34.447Z,31.50
2022-11-19T16:55:02.393Z,31.43
2022-11-19T16:57:30.413Z,26.03
2022-11-19T17:00:02.970Z,27.93
2022-11-19T17:02:39.246Z,27.50
2022-11-19T17:05:12.795Z,30.73
2022-11-19T17:07:40.556Z,38.40
2022-11-19T17:10:13.522Z,31.00
2022-11-19T17:12:59.693Z,37.63
2022-11-19T17:15:41.640Z,31.07
2022-11-19T17:18:34.742Z,36.67
2022-11-19T17:21:25.789Z,37.77
2022-11-19T17:23:53.615Z,34.40
2022-11-19T17:26:27.242Z,30.03
2022-11-19T17:29:09.102Z,32.03
2022-11-19T17:31:36.560Z,41.97
2022-11-19T17:34:19.206Z,41.27
2022-11-19T17:36:46.734Z,44.73
2022-11-19T17:39:14.808Z,35.13
2022-11-19T17:42:01.866Z,35.43
2022-11-19T17:44:36.619Z,35.70
2022-11-19T17:47:21.191Z,29.87
2022-11-19T17:49:49.639Z,34.50
2022-11-19T17:52:31.026Z,41.43
2022-11-19T17:55:08.962Z,44.67
2022-11-19T17:57:42.225Z,39.97
2022-11-19T18:00:10.161Z,41.03
2022-11-19T18:02:37.461Z,31.13
2022-11-19T18:05:15.166Z,39.90
2022-11-19T18:07:42.545Z,32.37
2022-11-19T18:10:10.141Z,33.70
2022-11-19T18:12:37.429Z,34.97
2022-11-19T18:15:04.938Z,29.90
2022-11-19T18:17:32.243Z,38.57
2022-11-19T18:19:59.585Z,38.37
2022-11-19T18:22:26.906Z,40.73
2022-11-19T18:24:54.280Z,36.07
2022-11-19T18:27:21.668Z,33.40
2022-11-19T18:29:48.957Z,39.00
2022-11-19T18:32:16.960Z,32.67
2022-11-19T18:34:46.027Z,39.40
2022-11-19T18:37:13.473Z,35.63
2022-11-19T18:39:41.042Z,39.60
2022-11-19T18:42:11.366Z,34.30
2022-11-19T18:44:38.839Z,48.50
2022-11-19T18:47:10.575Z,41.50
2022-11-19T18:49:38.472Z,36.20
2022-11-19T18:52:08.043Z,47.25
2022-11-19T18:54:35.265Z,43.23
2022-11-19T18:57:02.573Z,43.40
2022-11-19T18:59:30.054Z,39.40
2022-11-19T19:01:57.397Z,36.93
2022-11-19T19:04:24.776Z,42.63
2022-11-19T19:06:53.349Z,45.90
2022-11-19T19:09:21.517Z,42.30
2022-11-19T19:12:13.078Z,34.70
2022-11-19T19:14:40.991Z,40.03
2022-11-19T19:17:08.235Z,41.87
2022-11-19T19:19:36.029Z,40.40
2022-11-19T19:22:03.542Z,37.57
2022-11-19T19:24:32.336Z,38.73
2022-11-19T19:27:00.872Z,48.33
2022-11-19T19:29:28.181Z,41.50
2022-11-19T19:31:55.418Z,34.43
2022-11-19T19:34:22.642Z,39.37
2022-11-19T19:36:53.387Z,35.60
2022-11-19T19:39:21.513Z,40.30
2022-11-19T19:41:49.311Z,32.07
2022-11-19T19:44:16.788Z,40.07
2022-11-19T19:46:44.158Z,41.00
2022-11-19T19:49:11.455Z,45.00
2022-11-19T19:51:38.734Z,40.13
2022-11-19T19:54:06.048Z,35.90
2022-11-19T19:56:33.804Z,42.53
2022-11-19T19:59:01.467Z,48.43
2022-11-19T20:01:34.461Z,60.30
2022-11-19T20:04:09.297Z,52.17
2022-11-19T20:06:39.032Z,51.47
2022-11-19T20:09:08.966Z,47.47
2022-11-19T20:11:37.458Z,56.30
2022-11-19T20:14:04.792Z,52.97
2022-11-19T20:16:33.839Z,51.03
2022-11-19T20:19:01.716Z,50.60
2022-11-19T20:21:34.318Z,48.00
2022-11-19T20:24:10.327Z,48.73
2022-11-19T20:26:39.676Z,51.10
2022-11-19T20:29:07.322Z,44.90
2022-11-19T20:31:34.868Z,55.77
2022-11-19T20:34:04.555Z,54.20
2022-11-19T20:36:34.650Z,54.03
2022-11-19T20:39:02.204Z,60.67
2022-11-19T20:41:48.589Z,52.70
2022-11-19T20:44:19.914Z,59.07
2022-11-19T20:46:47.669Z,48.73
2022-11-19T20:49:17.161Z,56.90
2022-11-19T20:51:46.018Z,65.77
2022-11-19T20:54:13.442Z,53.67
2022-11-19T20:56:41.179Z,53.77
2022-11-19T20:59:08.803Z,51.90
2022-11-19T21:01:36.510Z,65.70
2022-11-19T21:04:04.171Z,62.93
2022-11-19T21:06:31.558Z,47.17
2022-11-19T21:08:58.975Z,48.43
2022-11-19T21:11:26.321Z,50.33
2022-11-19T21:13:53.649Z,44.57
2022-11-19T21:16:23.385Z,48.00
2022-11-19T21:18:51.269Z,42.27
2022-11-19T21:21:19.861Z,34.03
2022-11-19T21:23:47.336Z,41.47
2022-11-19T21:26:19.878Z,35.80
2022-11-19T21:28:51.449Z,45.83
2022-11-19T21:31:21.854Z,36.27
2022-11-19T21:33:49.022Z,37.93
2022-11-19T21:36:16.352Z,40.57
2022-11-19T21:38:43.617Z,36.13
2022-11-19T21:41:10.923Z,38.73
2022-11-19T21:43:38.152Z,39.47
2022-11-19T21:46:08.226Z,35.17
2022-11-19T21:48:37.936Z,41.73
2022-11-19T21:51:08.706Z,39.73
2022-11-19T21:53:36.348Z,50.77
2022-11-19T21:56:03.746Z,47.50
2022-11-19T21:58:31.053Z,142.37
2022-11-19T22:01:02.640Z,59.30
2022-11-19T22:03:32.320Z,185.07
2022-11-19T22:06:05.624Z,91.73
2022-11-19T22:08:34.411Z,105.15
2022-11-19T22:11:21.823Z,73.13
2022-11-19T22:13:49.193Z,68.40
2022-11-19T22:16:16.661Z,69.40
2022-11-19T22:18:43.731Z,60.43
2022-11-19T22:21:10.853Z,61.50
2022-11-19T22:23:38.240Z,70.90
2022-11-19T22:26:07.409Z,60.53
2022-11-19T22:28:34.725Z,61.90
2022-11-19T22:31:02.239Z,88.70
2022-11-19T22:33:40.029Z,66.73
2022-11-19T22:36:10.298Z,60.33
2022-11-19T22:38:38.968Z,61.63
2022-11-19T22:41:13.962Z,44.43
2022-11-19T22:43:41.900Z,53.47
2022-11-19T22:46:10.614Z,47.20
2022-11-19T22:48:38.063Z,69.77
2022-11-19T22:51:07.533Z,56.77
2022-11-19T22:53:37.644Z,58.67
2022-11-19T22:56:07.824Z,53.47
2022-11-19T22:58:35.834Z,53.00
2022-11-19T23:01:04.027Z,54.93
2022-11-19T23:03:31.020Z,58.13
2022-11-19T23:05:59.251Z,46.33
2022-11-19T23:08:26.628Z,54.23
2022-11-19T23:11:01.990Z,53.77
2022-11-19T23:13:33.985Z,62.57
2022-11-19T23:16:13.036Z,52.17
2022-11-19T23:18:42.723Z,53.40
2022-11-19T23:21:18.635Z,57.40
2022-11-19T23:23:45.978Z,48.50
2022-11-19T23:26:14.738Z,48.27
2022-11-19T23:28:42.435Z,54.27
2022-11-19T23:31:13.782Z,53.50
2022-11-19T23:33:41.158Z,55.17
2022-11-19T23:36:11.930Z,61.13
2022-11-19T23:38:39.722Z,57.07
2022-11-19T23:41:09.644Z,63.00
2022-11-19T23:43:37.242Z,53.37
2022-11-19T23:46:06.135Z,55.03
2022-11-19T23:48:33.772Z,54.03
2022-11-19T23:51:24.580Z,60.00
2022-11-19T23:53:52.292Z,54.47
2022-11-19T23:56:21.416Z,56.30
2022-11-19T23:58:48.807Z,58.60
